createdAt,value
2018-09-03T00:00:59.933Z,5.35
2018-09-03T00:03:27.405Z,5.20
2018-09-03T00:05:54.857Z,5.62
2018-09-03T00:08:22.346Z,10.95
2018-09-03T00:10:49.920Z,5.32
2018-09-03T00:13:17.379Z,4.90
2018-09-03T00:15:44.831Z,6.25
2018-09-03T00:18:12.289Z,5.30
2018-09-03T00:20:39.721Z,5.25
2018-09-03T00:23:07.178Z,9.07
2018-09-03T00:25:34.587Z,5.25
2018-09-03T00:28:02.330Z,6.80
2018-09-03T00:30:29.757Z,5.78
2018-09-03T00:33:02.907Z,9.10
2018-09-03T00:38:41.131Z,6.35
2018-09-03T00:44:17.718Z,9.95
2018-09-03T00:46:52.762Z,6.78
2018-09-03T00:49:20.240Z,5.65
2018-09-03T00:51:47.687Z,5.60
2018-09-03T00:54:15.131Z,7.68
2018-09-03T00:56:42.565Z,6.10
2018-09-03T00:59:09.993Z,12.73
2018-09-03T01:01:37.440Z,5.70
2018-09-03T01:04:04.842Z,5.75
2018-09-03T01:06:32.292Z,5.18
2018-09-03T01:08:59.699Z,9.30
2018-09-03T01:11:27.193Z,6.15
2018-09-03T01:13:54.613Z,4.05
2018-09-03T01:16:22.083Z,6.75
2018-09-03T01:18:49.478Z,5.05
2018-09-03T01:21:16.939Z,5.95
2018-09-03T01:23:44.446Z,6.37
2018-09-03T01:26:11.852Z,6.45
2018-09-03T01:28:39.341Z,4.93
2018-09-03T01:31:06.813Z,6.00
2018-09-03T01:33:34.230Z,5.65
2018-09-03T01:36:01.722Z,8.13
2018-09-03T01:38:29.168Z,6.45
2018-09-03T01:40:56.699Z,7.00
2018-09-03T01:43:24.172Z,5.75
2018-09-03T01:45:51.680Z,5.80
2018-09-03T01:48:19.269Z,5.78
2018-09-03T01:50:46.751Z,9.63
2018-09-03T01:53:14.159Z,7.28
2018-09-03T01:55:41.636Z,7.10
2018-09-03T01:58:09.033Z,7.05
2018-09-03T02:00:36.508Z,6.55
2018-09-03T02:03:03.958Z,6.72
2018-09-03T02:05:31.379Z,8.90
2018-09-03T02:07:58.835Z,7.30
2018-09-03T02:10:26.304Z,8.15
2018-09-03T02:12:53.747Z,8.50
2018-09-03T02:15:21.188Z,8.25
2018-09-03T02:17:48.603Z,7.15
2018-09-03T02:20:16.073Z,8.73
2018-09-03T02:22:43.470Z,5.87
2018-09-03T02:25:11.054Z,9.85
2018-09-03T02:27:38.522Z,6.68
2018-09-03T02:30:05.987Z,7.25
2018-09-03T02:32:33.478Z,8.73
2018-09-03T02:35:01.662Z,6.45
2018-09-03T02:37:29.079Z,7.43
2018-09-03T02:39:56.491Z,5.50
2018-09-03T02:42:23.911Z,7.78
2018-09-03T02:44:51.402Z,4.95
2018-09-03T02:47:18.865Z,5.20
2018-09-03T02:49:46.367Z,7.15
2018-09-03T02:52:13.843Z,5.18
2018-09-03T02:54:41.334Z,5.47
2018-09-03T02:57:08.776Z,7.32
2018-09-03T02:59:36.249Z,5.28
2018-09-03T03:02:03.992Z,5.65
2018-09-03T03:04:31.735Z,6.82
2018-09-03T03:06:59.147Z,4.60
2018-09-03T03:09:26.553Z,6.28
2018-09-03T03:11:54.150Z,7.82
2018-09-03T03:14:21.628Z,6.12
2018-09-03T03:16:49.786Z,8.93
2018-09-03T03:19:17.277Z,6.68
2018-09-03T03:21:44.749Z,5.72
2018-09-03T03:24:12.246Z,7.10
2018-09-03T03:26:39.671Z,7.85
2018-09-03T03:29:07.095Z,7.72
2018-09-03T03:31:34.510Z,5.87
2018-09-03T03:34:01.949Z,5.40
2018-09-03T03:36:29.399Z,7.97
2018-09-03T03:38:56.872Z,5.53
2018-09-03T03:41:24.338Z,6.03
2018-09-03T03:43:51.767Z,7.18
2018-09-03T03:46:19.276Z,6.37
2018-09-03T03:48:46.754Z,6.87
2018-09-03T03:51:14.187Z,5.68
2018-09-03T03:53:41.624Z,5.45
2018-09-03T03:56:09.115Z,6.15
2018-09-03T03:58:36.571Z,7.62
2018-09-03T04:01:04.007Z,7.62
2018-09-03T04:03:31.414Z,5.87
2018-09-03T04:05:58.844Z,6.43
2018-09-03T04:08:26.317Z,7.87
2018-09-03T04:10:53.765Z,5.97
2018-09-03T04:13:21.203Z,6.32
2018-09-03T04:15:48.589Z,5.65
2018-09-03T04:18:16.028Z,7.65
2018-09-03T04:20:43.467Z,7.78
2018-09-03T04:23:10.927Z,15.55
2018-09-03T04:25:38.352Z,10.40
2018-09-03T04:28:05.764Z,5.95
2018-09-03T04:30:33.167Z,5.55
2018-09-03T04:33:00.695Z,6.50
2018-09-03T04:35:28.199Z,7.12
2018-09-03T04:37:55.602Z,8.77
2018-09-03T04:40:23.123Z,6.90
2018-09-03T04:42:50.601Z,7.93
2018-09-03T04:45:18.089Z,6.00
2018-09-03T04:47:45.556Z,7.60
2018-09-03T04:50:12.999Z,7.45
2018-09-03T04:52:40.441Z,7.43
2018-09-03T04:55:07.986Z,5.85
2018-09-03T04:57:35.381Z,14.68
2018-09-03T05:00:02.911Z,5.95
2018-09-03T05:02:30.379Z,6.50
2018-09-03T05:04:57.894Z,7.50
2018-09-03T05:07:25.333Z,5.85
2018-09-03T05:09:52.831Z,5.78
2018-09-03T05:12:20.255Z,6.62
2018-09-03T05:14:47.651Z,7.57
2018-09-03T05:17:15.738Z,10.20
2018-09-03T05:19:43.131Z,6.60
2018-09-03T05:22:10.911Z,8.80
2018-09-03T05:24:38.340Z,6.37
2018-09-03T05:27:06.002Z,12.48
2018-09-03T05:29:33.451Z,6.35
2018-09-03T05:32:00.943Z,5.72
2018-09-03T05:34:28.418Z,7.75
2018-09-03T05:36:55.941Z,9.30
2018-09-03T05:39:23.426Z,7.85
2018-09-03T05:41:51.029Z,10.15
2018-09-03T05:44:18.485Z,6.75
2018-09-03T05:46:45.931Z,10.73
2018-09-03T05:49:13.446Z,9.13
2018-09-03T05:51:40.899Z,9.48
2018-09-03T05:54:08.412Z,7.95
2018-09-03T05:56:36.522Z,7.40
2018-09-03T05:59:04.078Z,7.62
2018-09-03T06:01:32.020Z,9.02
2018-09-03T06:03:59.431Z,7.28
2018-09-03T06:06:26.888Z,7.20
2018-09-03T06:08:54.528Z,10.55
2018-09-03T06:11:21.951Z,7.97
2018-09-03T06:13:49.379Z,9.70
2018-09-03T06:16:16.923Z,9.88
2018-09-03T06:18:44.399Z,10.38
2018-09-03T06:21:11.874Z,7.93
2018-09-03T06:23:39.356Z,9.27
2018-09-03T06:26:06.769Z,11.32
2018-09-03T06:28:34.209Z,12.13
2018-09-03T06:31:01.666Z,8.80
2018-09-03T06:33:29.831Z,7.65
2018-09-03T06:35:57.316Z,12.70
2018-09-03T06:38:25.156Z,6.80
2018-09-03T06:40:52.569Z,12.13
2018-09-03T06:43:20.089Z,7.32
2018-09-03T06:45:47.566Z,8.50
2018-09-03T06:48:14.980Z,11.90
2018-09-03T06:50:42.419Z,8.25
2018-09-03T06:53:09.860Z,9.18
2018-09-03T06:55:37.393Z,19.70
2018-09-03T06:58:04.844Z,9.18
2018-09-03T07:00:32.381Z,10.73
2018-09-03T07:02:59.978Z,7.57
2018-09-03T07:05:27.407Z,9.40
2018-09-03T07:07:54.969Z,9.55
2018-09-03T07:10:22.428Z,7.87
2018-09-03T07:12:49.884Z,7.87
2018-09-03T07:15:17.352Z,9.48
2018-09-03T07:17:44.813Z,9.88
2018-09-03T07:20:12.226Z,9.95
2018-09-03T07:22:39.718Z,9.13
2018-09-03T07:25:07.165Z,12.98
2018-09-03T07:27:34.647Z,11.55
2018-09-03T07:30:02.851Z,6.55
2018-09-03T07:32:30.392Z,11.05
2018-09-03T07:34:57.837Z,17.37
2018-09-03T07:37:25.338Z,10.40
2018-09-03T07:39:52.820Z,11.98
2018-09-03T07:42:20.406Z,11.12
2018-09-03T07:44:48.400Z,8.23
2018-09-03T07:47:15.798Z,8.43
2018-09-03T07:49:43.297Z,9.65
2018-09-03T07:52:10.745Z,8.75
2018-09-03T07:54:38.284Z,11.10
2018-09-03T07:57:05.757Z,9.27
2018-09-03T07:59:33.229Z,12.00
2018-09-03T08:02:00.675Z,9.23
2018-09-03T08:04:28.119Z,11.00
2018-09-03T08:06:55.868Z,9.88
2018-09-03T08:09:23.263Z,11.85
2018-09-03T08:11:50.679Z,7.80
2018-09-03T08:14:18.200Z,9.75
2018-09-03T08:16:45.703Z,12.18
2018-09-03T08:19:13.148Z,9.32
2018-09-03T08:21:40.718Z,7.87
2018-09-03T08:24:08.110Z,11.43
2018-09-03T08:26:35.526Z,10.40
2018-09-03T08:29:02.975Z,10.15
2018-09-03T08:31:30.441Z,9.85
2018-09-03T08:33:57.922Z,9.90
2018-09-03T08:36:25.362Z,10.63
2018-09-03T08:38:52.814Z,7.75
2018-09-03T08:41:20.911Z,11.12
2018-09-03T08:43:48.310Z,10.57
2018-09-03T08:46:15.777Z,11.82
2018-09-03T08:48:43.217Z,9.88
2018-09-03T08:51:10.669Z,9.07
2018-09-03T08:53:38.247Z,8.70
2018-09-03T08:56:05.755Z,12.90
2018-09-03T08:58:33.207Z,10.20
2018-09-03T09:01:00.644Z,9.07
2018-09-03T09:03:28.102Z,9.35
2018-09-03T09:05:55.658Z,11.02
2018-09-03T09:08:23.060Z,7.18
2018-09-03T09:10:50.551Z,10.68
2018-09-03T09:13:17.991Z,10.65
2018-09-03T09:15:45.448Z,11.25
2018-09-03T09:18:18.852Z,10.27
2018-09-03T09:20:46.291Z,15.90
2018-09-03T09:23:13.774Z,8.40
2018-09-03T09:25:41.261Z,8.68
2018-09-03T09:28:08.686Z,7.40
2018-09-03T09:30:36.124Z,8.35
2018-09-03T09:33:03.732Z,8.02
2018-09-03T09:35:31.535Z,9.75
2018-09-03T09:37:59.011Z,7.87
2018-09-03T09:40:26.779Z,7.05
2018-09-03T09:42:54.300Z,11.45
2018-09-03T09:45:21.692Z,7.75
2018-09-03T09:47:49.201Z,10.68
2018-09-03T09:50:16.669Z,6.40
2018-09-03T09:52:44.202Z,9.40
2018-09-03T09:55:12.647Z,7.00
2018-09-03T09:57:40.108Z,8.80
2018-09-03T10:00:07.593Z,8.30
2018-09-03T10:02:35.008Z,9.55
2018-09-03T10:05:02.474Z,7.00
2018-09-03T10:07:30.446Z,6.15
2018-09-03T10:09:57.951Z,7.80
2018-09-03T10:12:25.398Z,9.13
2018-09-03T10:14:52.818Z,6.40
2018-09-03T10:17:20.262Z,6.20
2018-09-03T10:19:47.702Z,7.60
2018-09-03T10:22:15.210Z,7.37
2018-09-03T10:24:42.677Z,7.53
2018-09-03T10:27:10.138Z,6.22
2018-09-03T10:29:37.588Z,6.47
2018-09-03T10:32:05.121Z,5.35
2018-09-03T10:34:32.623Z,6.80
2018-09-03T10:37:00.098Z,5.65
2018-09-03T10:39:27.550Z,10.25
2018-09-03T10:41:55.023Z,8.32
2018-09-03T10:44:22.527Z,5.75
2018-09-03T10:49:16.969Z,62.75
2018-09-03T10:51:44.394Z,62.67
2018-09-03T10:54:11.909Z,64.62
2018-09-03T10:56:39.350Z,27.90
2018-09-03T10:59:06.795Z,19.50
2018-09-03T11:01:34.287Z,25.35
2018-09-03T11:04:01.846Z,11.93
2018-09-03T11:06:29.340Z,23.67
2018-09-03T11:08:56.863Z,19.55
2018-09-03T11:28:04.162Z,37.10
2018-09-03T12:07:17.965Z,13.30
2018-09-03T12:14:39.669Z,9.70
2018-09-03T12:17:07.119Z,28.55
2018-09-03T12:22:02.767Z,14.60
2018-09-03T13:45:40.989Z,4.20
2018-09-03T14:43:39.934Z,6.70
2018-09-03T14:51:01.772Z,5.90
2018-09-03T14:55:56.302Z,6.70
2018-09-03T15:05:50.160Z,4.70
2018-09-03T15:40:09.791Z,6.10
2018-09-03T15:57:20.569Z,5.55
2018-09-03T15:59:48.073Z,5.90
2018-09-03T16:02:15.548Z,8.60
2018-09-03T16:04:42.999Z,6.90
2018-09-03T16:07:10.624Z,8.10
2018-09-03T16:09:38.214Z,7.70
2018-09-03T16:12:05.724Z,8.60
2018-09-03T16:14:33.199Z,6.40
2018-09-03T17:23:20.655Z,13.20
2018-09-03T17:25:48.233Z,6.95
2018-09-03T17:28:15.911Z,4.65
2018-09-03T17:30:43.362Z,7.10
2018-09-03T17:33:10.791Z,5.55
2018-09-03T17:49:02.113Z,4.87
2018-09-03T17:51:29.640Z,5.25
2018-09-03T17:53:57.091Z,6.43
2018-09-03T17:56:24.559Z,6.80
2018-09-03T17:58:52.122Z,7.32
2018-09-03T18:01:19.646Z,5.78
2018-09-03T18:03:47.142Z,6.12
2018-09-03T18:06:14.575Z,6.45
2018-09-03T18:08:42.069Z,6.85
2018-09-03T18:11:09.549Z,6.50
2018-09-03T18:13:36.992Z,6.65
2018-09-03T18:16:04.609Z,7.35
2018-09-03T18:18:32.129Z,5.65
2018-09-03T18:20:59.750Z,5.87
2018-09-03T18:23:27.251Z,7.68
2018-09-03T18:25:54.746Z,7.35
2018-09-03T18:28:22.236Z,8.48
2018-09-03T18:30:49.710Z,5.53
2018-09-03T18:33:17.140Z,4.80
2018-09-03T18:35:44.558Z,6.72
2018-09-03T18:38:11.979Z,7.18
2018-09-03T18:40:39.440Z,7.85
2018-09-03T18:43:06.879Z,7.78
2018-09-03T18:45:34.311Z,5.60
2018-09-03T18:48:01.752Z,9.15
2018-09-03T18:50:29.199Z,8.77
2018-09-03T18:52:56.769Z,5.75
2018-09-03T18:55:24.224Z,6.18
2018-09-03T18:57:51.615Z,5.28
2018-09-03T19:00:19.283Z,5.22
2018-09-03T19:02:46.636Z,7.28
2018-09-03T19:05:14.095Z,9.07
2018-09-03T19:07:41.587Z,6.35
2018-09-03T19:10:09.030Z,8.50
2018-09-03T19:12:36.503Z,10.75
2018-09-03T19:15:03.931Z,11.80
2018-09-03T19:17:31.385Z,8.65
2018-09-03T19:19:58.816Z,6.70
2018-09-03T19:22:26.243Z,10.35
2018-09-03T19:24:53.730Z,10.70
2018-09-03T19:27:21.157Z,10.32
2018-09-03T19:29:48.652Z,10.32
2018-09-03T19:32:16.108Z,7.62
2018-09-03T19:34:43.554Z,7.93
2018-09-03T19:37:11.110Z,9.73
2018-09-03T19:39:38.525Z,8.35
2018-09-03T19:42:05.966Z,9.63
2018-09-03T19:44:33.402Z,7.50
2018-09-03T19:47:01.220Z,11.25
2018-09-03T19:49:28.761Z,8.75
2018-09-03T19:51:56.219Z,8.77
2018-09-03T19:54:23.626Z,6.00
2018-09-03T19:56:51.084Z,7.47
2018-09-03T19:59:18.530Z,10.50
2018-09-03T20:01:46.085Z,8.23
2018-09-03T20:04:13.539Z,6.80
2018-09-03T20:06:41.055Z,7.32
2018-09-03T20:09:08.510Z,8.13
2018-09-03T20:11:35.956Z,7.82
2018-09-03T20:14:03.385Z,9.45
2018-09-03T20:16:30.841Z,10.30
2018-09-03T20:18:58.245Z,12.00
2018-09-03T20:21:25.731Z,7.85
2018-09-03T20:23:53.162Z,12.70
2018-09-03T20:26:20.672Z,8.90
2018-09-03T20:28:48.128Z,8.68
2018-09-03T20:31:15.679Z,7.90
2018-09-03T20:33:42.990Z,6.03
2018-09-03T20:36:10.408Z,7.43
2018-09-03T20:38:37.892Z,16.83
2018-09-03T20:41:05.383Z,7.10
2018-09-03T20:43:33.445Z,10.15
2018-09-03T20:46:00.908Z,9.82
2018-09-03T20:48:28.401Z,14.90
2018-09-03T20:50:55.865Z,15.15
2018-09-03T20:53:23.254Z,18.12
2018-09-03T20:55:50.786Z,17.12
2018-09-03T20:58:18.220Z,14.95
2018-09-03T21:00:45.657Z,14.90
2018-09-03T21:03:13.068Z,13.15
2018-09-03T21:05:40.528Z,17.95
2018-09-03T21:08:07.974Z,16.00
2018-09-03T21:10:35.398Z,15.10
2018-09-03T21:13:02.900Z,15.65
2018-09-03T21:15:30.411Z,15.10
2018-09-03T21:17:57.833Z,8.70
2018-09-03T21:20:25.254Z,6.80
2018-09-03T21:22:52.686Z,6.62
2018-09-03T21:25:20.144Z,9.55
2018-09-03T21:27:47.589Z,5.43
2018-09-03T21:30:15.075Z,7.35
2018-09-03T21:32:42.490Z,5.05
2018-09-03T21:35:09.964Z,4.70
2018-09-03T21:37:37.385Z,5.03
2018-09-03T21:40:04.828Z,6.65
2018-09-03T21:42:32.218Z,7.55
2018-09-03T21:44:59.672Z,6.28
2018-09-03T21:47:27.133Z,5.25
2018-09-03T21:49:54.588Z,9.38
2018-09-03T21:52:22.060Z,6.03
2018-09-03T21:54:49.544Z,6.70
2018-09-03T21:57:17.074Z,5.40
2018-09-03T21:59:44.528Z,5.35
2018-09-03T22:02:11.966Z,4.80
2018-09-03T22:04:39.364Z,6.20
2018-09-03T22:07:06.955Z,5.28
2018-09-03T22:09:34.376Z,4.60
2018-09-03T22:12:01.855Z,7.22
2018-09-03T22:14:29.306Z,9.60
2018-09-03T22:16:56.711Z,7.87
2018-09-03T22:19:24.118Z,12.18
2018-09-03T22:21:51.592Z,7.30
2018-09-03T22:24:19.001Z,8.77
2018-09-03T22:26:46.617Z,7.20
2018-09-03T22:29:14.052Z,13.20
2018-09-03T22:31:41.502Z,18.85
2018-09-03T22:34:08.947Z,15.57
2018-09-03T22:36:36.418Z,16.85
2018-09-03T22:39:03.911Z,12.37
2018-09-03T22:41:31.352Z,12.60
2018-09-03T22:43:58.856Z,13.40
2018-09-03T22:46:26.290Z,12.70
2018-09-03T22:48:53.725Z,5.75
2018-09-03T22:51:21.142Z,7.07
2018-09-03T22:53:48.592Z,6.60
2018-09-03T22:56:16.045Z,8.05
2018-09-03T22:58:43.527Z,21.48
2018-09-03T23:01:11.031Z,31.42
2018-09-03T23:03:38.454Z,26.48
2018-09-03T23:06:05.879Z,24.98
2018-09-03T23:08:33.383Z,25.17
2018-09-03T23:11:00.864Z,24.80
2018-09-03T23:13:28.319Z,24.00
2018-09-03T23:15:55.756Z,27.83
2018-09-03T23:18:23.237Z,26.48
2018-09-03T23:20:50.681Z,26.15
2018-09-03T23:23:18.091Z,25.00
2018-09-03T23:25:45.510Z,24.63
2018-09-03T23:28:12.947Z,25.70
2018-09-03T23:30:40.358Z,24.33
2018-09-03T23:33:07.772Z,24.08
2018-09-03T23:35:35.261Z,24.83
2018-09-03T23:38:02.777Z,23.48
2018-09-03T23:40:30.228Z,24.75
2018-09-03T23:42:57.650Z,22.65
2018-09-03T23:45:25.111Z,22.80
2018-09-03T23:47:52.526Z,21.40
2018-09-03T23:50:20.017Z,23.40
2018-09-03T23:52:47.418Z,22.75
2018-09-03T23:55:14.919Z,23.42
2018-09-03T23:57:42.409Z,21.92
